sensor_id;sensor_type;location;lat;lon;timestamp;temperature;humidity
1948;DHT22;974;52.400;9.818;2023-02-01T00:00:10;5.10;99.90
1948;DHT22;974;52.400;9.818;2023-02-01T00:02:36;5.10;99.90
1948;DHT22;974;52.400;9.818;2023-02-01T00:05:05;5.10;99.90
1948;DHT22;974;52.400;9.818;2023-02-01T00:07:31;5.10;99.90
1948;DHT22;974;52.400;9.818;2023-02-01T00:09:56;5.10;99.90
1948;DHT22;974;52.400;9.818;2023-02-01T00:12:22;5.10;99.90
1948;DHT22;974;52.400;9.818;2023-02-01T00:14:47;5.10;99.90
1948;DHT22;974;52.400;9.818;2023-02-01T00:17:13;5.10;99.90
1948;DHT22;974;52.400;9.818;2023-02-01T00:19:39;5.10;99.90
1948;DHT22;974;52.400;9.818;2023-02-01T00:22:04;5.10;99.90
1948;DHT22;974;52.400;9.818;2023-02-01T00:24:30;5.10;99.90
1948;DHT22;974;52.400;9.818;2023-02-01T00:26:55;5.10;99.90
1948;DHT22;974;52.400;9.818;2023-02-01T00:29:21;5.10;99.90
1948;DHT22;974;52.400;9.818;2023-02-01T00:31:49;5.10;99.90
1948;DHT22;974;52.400;9.818;2023-02-01T00:34:16;5.10;99.90
1948;DHT22;974;52.400;9.818;2023-02-01T00:36:42;5.10;99.90
1948;DHT22;974;52.400;9.818;2023-02-01T00:39:09;5.00;99.90
1948;DHT22;974;52.400;9.818;2023-02-01T00:41:35;5.00;99.90
1948;DHT22;974;52.400;9.818;2023-02-01T00:44:00;5.10;99.90
1948;DHT22;974;52.400;9.818;2023-02-01T00:46:26;5.00;99.90
1948;DHT22;974;52.400;9.818;2023-02-01T00:48:52;5.00;99.90
1948;DHT22;974;52.400;9.818;2023-02-01T00:51:23;5.00;99.90
1948;DHT22;974;52.400;9.818;2023-02-01T00:53:48;5.00;99.90
1948;DHT22;974;52.400;9.818;2023-02-01T00:56:14;5.00;99.90
1948;DHT22;974;52.400;9.818;2023-02-01T00:58:40;5.00;99.90
1948;DHT22;974;52.400;9.818;2023-02-01T01:01:26;5.00;99.90
1948;DHT22;974;52.400;9.818;2023-02-01T01:03:54;4.90;99.90
1948;DHT22;974;52.400;9.818;2023-02-01T01:06:28;4.90;99.90
1948;DHT22;974;52.400;9.818;2023-02-01T01:08:56;5.00;99.90
1948;DHT22;974;52.400;9.818;2023-02-01T01:11:24;4.90;99.90
1948;DHT22;974;52.400;9.818;2023-02-01T01:13:52;4.90;99.90
1948;DHT22;974;52.400;9.818;2023-02-01T01:16:18;4.90;99.90
1948;DHT22;974;52.400;9.818;2023-02-01T01:18:44;5.00;99.90
1948;DHT22;974;52.400;9.818;2023-02-01T01:21:12;5.00;99.90
1948;DHT22;974;52.400;9.818;2023-02-01T01:23:38;5.00;99.90
1948;DHT22;974;52.400;9.818;2023-02-01T01:26:08;5.00;99.90
1948;DHT22;974;52.400;9.818;2023-02-01T01:28:34;5.20;99.90
1948;DHT22;974;52.400;9.818;2023-02-01T01:31:00;5.00;99.90
1948;DHT22;974;52.400;9.818;2023-02-01T01:33:25;5.10;99.90
1948;DHT22;974;52.400;9.818;2023-02-01T01:35:51;5.10;99.90
1948;DHT22;974;52.400;9.818;2023-02-01T01:38:16;5.10;99.90
1948;DHT22;974;52.400;9.818;2023-02-01T01:40:46;5.10;99.90
1948;DHT22;974;52.400;9.818;2023-02-01T01:43:16;5.00;99.90
1948;DHT22;974;52.400;9.818;2023-02-01T01:45:42;5.00;99.90
1948;DHT22;974;52.400;9.818;2023-02-01T01:51:02;5.10;99.90
1948;DHT22;974;52.400;9.818;2023-02-01T01:53:55;5.00;99.90
1948;DHT22;974;52.400;9.818;2023-02-01T01:56:22;5.00;99.90
1948;DHT22;974;52.400;9.818;2023-02-01T01:58:48;5.00;99.90
1948;DHT22;974;52.400;9.818;2023-02-01T02:01:13;5.00;99.90
1948;DHT22;974;52.400;9.818;2023-02-01T02:03:42;5.00;99.90
1948;DHT22;974;52.400;9.818;2023-02-01T02:06:27;5.00;99.90
1948;DHT22;974;52.400;9.818;2023-02-01T02:08:54;5.00;99.90
1948;DHT22;974;52.400;9.818;2023-02-01T02:11:19;5.00;99.90
1948;DHT22;974;52.400;9.818;2023-02-01T02:13:48;5.00;99.90
1948;DHT22;974;52.400;9.818;2023-02-01T02:25:26;5.00;99.90
1948;DHT22;974;52.400;9.818;2023-02-01T02:30:36;5.00;99.90
1948;DHT22;974;52.400;9.818;2023-02-01T02:39:12;5.10;99.90
1948;DHT22;974;52.400;9.818;2023-02-01T02:42:01;5.20;99.90
1948;DHT22;974;52.400;9.818;2023-02-01T02:48:13;5.10;99.90
1948;DHT22;974;52.400;9.818;2023-02-01T02:50:49;5.10;99.90
1948;DHT22;974;52.400;9.818;2023-02-01T02:56:21;5.10;99.90
1948;DHT22;974;52.400;9.818;2023-02-01T02:59:07;5.20;99.90
1948;DHT22;974;52.400;9.818;2023-02-01T03:01:53;5.20;99.90
1948;DHT22;974;52.400;9.818;2023-02-01T03:04:38;5.20;99.90
1948;DHT22;974;52.400;9.818;2023-02-01T03:10:04;5.20;99.90
1948;DHT22;974;52.400;9.818;2023-02-01T03:12:34;5.30;99.90
1948;DHT22;974;52.400;9.818;2023-02-01T03:15:26;5.20;99.90
1948;DHT22;974;52.400;9.818;2023-02-01T03:17:55;5.30;99.90
1948;DHT22;974;52.400;9.818;2023-02-01T03:20:24;5.30;99.90
1948;DHT22;974;52.400;9.818;2023-02-01T03:22:52;5.30;99.90
1948;DHT22;974;52.400;9.818;2023-02-01T03:25:22;5.30;99.90
1948;DHT22;974;52.400;9.818;2023-02-01T03:28:00;5.30;99.90
1948;DHT22;974;52.400;9.818;2023-02-01T03:30:31;5.30;99.90
1948;DHT22;974;52.400;9.818;2023-02-01T03:33:00;5.30;99.90
1948;DHT22;974;52.400;9.818;2023-02-01T03:41:18;5.30;99.90
1948;DHT22;974;52.400;9.818;2023-02-01T03:46:23;5.30;99.90
1948;DHT22;974;52.400;9.818;2023-02-01T03:48:52;5.30;99.90
1948;DHT22;974;52.400;9.818;2023-02-01T03:51:19;5.30;99.90
1948;DHT22;974;52.400;9.818;2023-02-01T03:53:46;5.30;99.90
1948;DHT22;974;52.400;9.818;2023-02-01T03:56:15;5.30;99.90
1948;DHT22;974;52.400;9.818;2023-02-01T03:58:42;5.20;99.90
1948;DHT22;974;52.400;9.818;2023-02-01T04:01:22;5.30;99.90
1948;DHT22;974;52.400;9.818;2023-02-01T04:03:48;5.30;99.90
1948;DHT22;974;52.400;9.818;2023-02-01T04:06:14;5.20;99.90
1948;DHT22;974;52.400;9.818;2023-02-01T04:08:39;5.20;99.90
1948;DHT22;974;52.400;9.818;2023-02-01T04:11:05;5.20;99.90
1948;DHT22;974;52.400;9.818;2023-02-01T04:13:30;5.30;99.90
1948;DHT22;974;52.400;9.818;2023-02-01T04:15:55;5.30;99.90
1948;DHT22;974;52.400;9.818;2023-02-01T04:18:21;5.30;99.90
1948;DHT22;974;52.400;9.818;2023-02-01T04:20:46;5.30;99.90
1948;DHT22;974;52.400;9.818;2023-02-01T04:23:12;5.40;99.90
1948;DHT22;974;52.400;9.818;2023-02-01T04:25:37;5.40;99.90
1948;DHT22;974;52.400;9.818;2023-02-01T04:28:03;5.40;99.90
1948;DHT22;974;52.400;9.818;2023-02-01T04:30:30;5.40;99.90
1948;DHT22;974;52.400;9.818;2023-02-01T04:32:55;5.30;99.90
1948;DHT22;974;52.400;9.818;2023-02-01T04:35:20;5.30;99.90
1948;DHT22;974;52.400;9.818;2023-02-01T04:37:47;5.30;99.90
1948;DHT22;974;52.400;9.818;2023-02-01T04:40:12;5.10;99.90
1948;DHT22;974;52.400;9.818;2023-02-01T04:42:38;5.10;99.90
1948;DHT22;974;52.400;9.818;2023-02-01T04:45:04;5.20;99.90
1948;DHT22;974;52.400;9.818;2023-02-01T04:47:29;5.20;99.90
1948;DHT22;974;52.400;9.818;2023-02-01T04:49:55;5.20;99.90
1948;DHT22;974;52.400;9.818;2023-02-01T04:52:20;5.20;99.90
1948;DHT22;974;52.400;9.818;2023-02-01T04:54:46;5.30;99.90
1948;DHT22;974;52.400;9.818;2023-02-01T04:57:11;5.20;99.90
1948;DHT22;974;52.400;9.818;2023-02-01T04:59:39;5.20;99.90
1948;DHT22;974;52.400;9.818;2023-02-01T05:02:04;5.20;99.90
1948;DHT22;974;52.400;9.818;2023-02-01T05:04:30;5.20;99.90
1948;DHT22;974;52.400;9.818;2023-02-01T05:06:55;5.00;99.90
1948;DHT22;974;52.400;9.818;2023-02-01T05:09:20;5.10;99.90
1948;DHT22;974;52.400;9.818;2023-02-01T05:11:47;5.10;99.90
1948;DHT22;974;52.400;9.818;2023-02-01T05:14:31;5.00;99.90
1948;DHT22;974;52.400;9.818;2023-02-01T05:16:56;4.90;99.90
1948;DHT22;974;52.400;9.818;2023-02-01T05:19:22;4.90;99.90
1948;DHT22;974;52.400;9.818;2023-02-01T05:21:47;4.90;99.90
1948;DHT22;974;52.400;9.818;2023-02-01T05:24:13;4.90;99.90
1948;DHT22;974;52.400;9.818;2023-02-01T05:26:40;4.90;99.90
1948;DHT22;974;52.400;9.818;2023-02-01T05:29:07;4.90;99.90
1948;DHT22;974;52.400;9.818;2023-02-01T05:31:33;4.80;99.90
1948;DHT22;974;52.400;9.818;2023-02-01T05:33:59;4.70;99.90
1948;DHT22;974;52.400;9.818;2023-02-01T05:36:25;4.70;99.90
1948;DHT22;974;52.400;9.818;2023-02-01T05:38:50;4.70;99.90
1948;DHT22;974;52.400;9.818;2023-02-01T05:41:16;4.70;99.90
1948;DHT22;974;52.400;9.818;2023-02-01T05:43:41;4.70;99.90
1948;DHT22;974;52.400;9.818;2023-02-01T05:46:07;4.70;99.90
1948;DHT22;974;52.400;9.818;2023-02-01T05:48:32;4.70;99.90
1948;DHT22;974;52.400;9.818;2023-02-01T05:50:58;4.60;99.90
1948;DHT22;974;52.400;9.818;2023-02-01T05:53:23;4.70;99.90
1948;DHT22;974;52.400;9.818;2023-02-01T05:55:49;4.60;99.90
1948;DHT22;974;52.400;9.818;2023-02-01T05:58:14;4.70;99.90
1948;DHT22;974;52.400;9.818;2023-02-01T06:00:40;4.70;99.90
1948;DHT22;974;52.400;9.818;2023-02-01T06:03:06;4.70;99.90
1948;DHT22;974;52.400;9.818;2023-02-01T06:05:31;4.70;99.90
1948;DHT22;974;52.400;9.818;2023-02-01T06:07:57;4.60;99.90
1948;DHT22;974;52.400;9.818;2023-02-01T06:10:23;4.70;99.90
1948;DHT22;974;52.400;9.818;2023-02-01T06:12:49;4.70;99.90
1948;DHT22;974;52.400;9.818;2023-02-01T06:15:15;4.70;99.90
1948;DHT22;974;52.400;9.818;2023-02-01T06:17:41;4.70;99.90
1948;DHT22;974;52.400;9.818;2023-02-01T06:20:09;4.80;99.90
1948;DHT22;974;52.400;9.818;2023-02-01T06:22:35;4.80;99.90
1948;DHT22;974;52.400;9.818;2023-02-01T06:25:02;4.90;99.90
1948;DHT22;974;52.400;9.818;2023-02-01T06:27:27;4.90;99.90
1948;DHT22;974;52.400;9.818;2023-02-01T06:29:53;4.90;99.90
1948;DHT22;974;52.400;9.818;2023-02-01T06:32:20;4.90;99.90
1948;DHT22;974;52.400;9.818;2023-02-01T06:34:45;4.90;99.90
1948;DHT22;974;52.400;9.818;2023-02-01T06:37:11;4.90;99.90
1948;DHT22;974;52.400;9.818;2023-02-01T06:39:37;4.90;99.90
1948;DHT22;974;52.400;9.818;2023-02-01T06:42:03;4.90;99.90
1948;DHT22;974;52.400;9.818;2023-02-01T06:44:28;4.90;99.90
1948;DHT22;974;52.400;9.818;2023-02-01T06:46:54;5.00;99.90
1948;DHT22;974;52.400;9.818;2023-02-01T06:49:20;4.90;99.90
1948;DHT22;974;52.400;9.818;2023-02-01T06:51:46;4.90;99.90
1948;DHT22;974;52.400;9.818;2023-02-01T06:54:11;5.00;99.90
1948;DHT22;974;52.400;9.818;2023-02-01T06:56:37;5.00;99.90
1948;DHT22;974;52.400;9.818;2023-02-01T06:59:09;4.90;99.90
1948;DHT22;974;52.400;9.818;2023-02-01T07:01:35;4.80;99.90
1948;DHT22;974;52.400;9.818;2023-02-01T07:04:01;4.80;99.90
1948;DHT22;974;52.400;9.818;2023-02-01T07:06:26;4.80;99.90
1948;DHT22;974;52.400;9.818;2023-02-01T07:08:52;4.70;99.90
1948;DHT22;974;52.400;9.818;2023-02-01T07:11:21;4.70;99.90
1948;DHT22;974;52.400;9.818;2023-02-01T07:13:46;4.80;99.90
1948;DHT22;974;52.400;9.818;2023-02-01T07:16:14;4.80;99.90
1948;DHT22;974;52.400;9.818;2023-02-01T07:18:40;4.80;99.90
1948;DHT22;974;52.400;9.818;2023-02-01T07:21:06;4.80;99.90
1948;DHT22;974;52.400;9.818;2023-02-01T07:23:32;4.80;99.90
1948;DHT22;974;52.400;9.818;2023-02-01T07:25:59;4.80;99.90
1948;DHT22;974;52.400;9.818;2023-02-01T07:28:25;4.80;99.90
1948;DHT22;974;52.400;9.818;2023-02-01T07:30:51;4.80;99.90
1948;DHT22;974;52.400;9.818;2023-02-01T07:33:21;4.80;99.90
1948;DHT22;974;52.400;9.818;2023-02-01T07:35:48;4.80;99.90
1948;DHT22;974;52.400;9.818;2023-02-01T07:38:14;4.90;99.90
1948;DHT22;974;52.400;9.818;2023-02-01T07:40:40;4.90;99.90
1948;DHT22;974;52.400;9.818;2023-02-01T07:43:06;4.90;99.90
1948;DHT22;974;52.400;9.818;2023-02-01T07:45:33;4.90;99.90
1948;DHT22;974;52.400;9.818;2023-02-01T07:47:59;5.00;99.90
1948;DHT22;974;52.400;9.818;2023-02-01T07:50:24;4.90;99.90
1948;DHT22;974;52.400;9.818;2023-02-01T07:52:50;5.00;99.90
1948;DHT22;974;52.400;9.818;2023-02-01T07:55:15;5.00;99.90
1948;DHT22;974;52.400;9.818;2023-02-01T07:57:41;5.10;99.90
1948;DHT22;974;52.400;9.818;2023-02-01T08:00:08;5.10;99.90
1948;DHT22;974;52.400;9.818;2023-02-01T08:02:52;5.10;99.90
1948;DHT22;974;52.400;9.818;2023-02-01T08:05:17;5.20;99.90
1948;DHT22;974;52.400;9.818;2023-02-01T08:07:43;5.20;99.90
1948;DHT22;974;52.400;9.818;2023-02-01T08:10:09;5.10;99.90
1948;DHT22;974;52.400;9.818;2023-02-01T08:12:38;5.10;99.90
1948;DHT22;974;52.400;9.818;2023-02-01T08:15:04;5.10;99.90
1948;DHT22;974;52.400;9.818;2023-02-01T08:17:29;5.10;99.90
1948;DHT22;974;52.400;9.818;2023-02-01T08:19:55;5.10;99.90
1948;DHT22;974;52.400;9.818;2023-02-01T08:22:21;5.20;99.90
1948;DHT22;974;52.400;9.818;2023-02-01T08:24:49;5.10;99.90
1948;DHT22;974;52.400;9.818;2023-02-01T08:27:15;5.20;99.90
1948;DHT22;974;52.400;9.818;2023-02-01T08:29:41;5.20;99.90
1948;DHT22;974;52.400;9.818;2023-02-01T08:32:06;5.30;99.90
1948;DHT22;974;52.400;9.818;2023-02-01T08:34:32;5.30;99.90
1948;DHT22;974;52.400;9.818;2023-02-01T08:36:57;5.40;99.90
1948;DHT22;974;52.400;9.818;2023-02-01T08:39:24;5.30;99.90
1948;DHT22;974;52.400;9.818;2023-02-01T08:41:50;5.40;99.90
1948;DHT22;974;52.400;9.818;2023-02-01T08:44:35;5.40;99.90
1948;DHT22;974;52.400;9.818;2023-02-01T08:47:02;5.40;99.90
1948;DHT22;974;52.400;9.818;2023-02-01T08:49:27;5.40;99.90
1948;DHT22;974;52.400;9.818;2023-02-01T08:51:53;5.40;99.90
1948;DHT22;974;52.400;9.818;2023-02-01T08:54:18;5.50;99.90
1948;DHT22;974;52.400;9.818;2023-02-01T08:56:44;5.50;99.90
1948;DHT22;974;52.400;9.818;2023-02-01T08:59:09;5.60;99.90
1948;DHT22;974;52.400;9.818;2023-02-01T09:01:35;5.60;99.90
1948;DHT22;974;52.400;9.818;2023-02-01T09:04:00;5.70;99.90
1948;DHT22;974;52.400;9.818;2023-02-01T09:06:25;5.70;99.90
1948;DHT22;974;52.400;9.818;2023-02-01T09:08:51;5.70;99.90
1948;DHT22;974;52.400;9.818;2023-02-01T09:11:17;5.80;99.90
1948;DHT22;974;52.400;9.818;2023-02-01T09:13:45;5.80;99.90
1948;DHT22;974;52.400;9.818;2023-02-01T09:16:10;5.80;99.90
1948;DHT22;974;52.400;9.818;2023-02-01T09:18:36;5.90;99.90
1948;DHT22;974;52.400;9.818;2023-02-01T09:21:06;6.00;99.90
1948;DHT22;974;52.400;9.818;2023-02-01T09:23:32;6.00;99.90
1948;DHT22;974;52.400;9.818;2023-02-01T09:26:02;6.00;99.90
1948;DHT22;974;52.400;9.818;2023-02-01T09:28:28;6.10;99.90
1948;DHT22;974;52.400;9.818;2023-02-01T09:31:00;6.10;99.90
1948;DHT22;974;52.400;9.818;2023-02-01T09:33:27;6.10;99.90
1948;DHT22;974;52.400;9.818;2023-02-01T09:36:00;6.20;99.90
1948;DHT22;974;52.400;9.818;2023-02-01T09:38:26;6.20;99.90
1948;DHT22;974;52.400;9.818;2023-02-01T09:40:53;6.20;99.90
1948;DHT22;974;52.400;9.818;2023-02-01T09:43:53;6.20;99.90
1948;DHT22;974;52.400;9.818;2023-02-01T09:46:32;6.20;99.90
1948;DHT22;974;52.400;9.818;2023-02-01T09:49:04;6.20;99.90
1948;DHT22;974;52.400;9.818;2023-02-01T09:51:33;6.20;99.90
1948;DHT22;974;52.400;9.818;2023-02-01T09:54:08;6.20;99.90
1948;DHT22;974;52.400;9.818;2023-02-01T09:56:44;6.30;99.90
1948;DHT22;974;52.400;9.818;2023-02-01T09:59:36;6.30;99.90
1948;DHT22;974;52.400;9.818;2023-02-01T10:02:09;6.30;99.90
1948;DHT22;974;52.400;9.818;2023-02-01T10:04:36;6.30;99.90
1948;DHT22;974;52.400;9.818;2023-02-01T10:07:05;6.40;99.90
1948;DHT22;974;52.400;9.818;2023-02-01T10:09:49;6.40;99.90
1948;DHT22;974;52.400;9.818;2023-02-01T10:12:48;6.40;99.90
1948;DHT22;974;52.400;9.818;2023-02-01T10:20:57;6.50;99.90
1948;DHT22;974;52.400;9.818;2023-02-01T10:23:41;6.50;99.90
1948;DHT22;974;52.400;9.818;2023-02-01T10:26:21;6.60;99.90
1948;DHT22;974;52.400;9.818;2023-02-01T10:28:57;6.60;99.90
1948;DHT22;974;52.400;9.818;2023-02-01T10:31:26;6.50;99.90
1948;DHT22;974;52.400;9.818;2023-02-01T10:34:18;6.50;99.90
1948;DHT22;974;52.400;9.818;2023-02-01T10:37:07;6.60;99.90
1948;DHT22;974;52.400;9.818;2023-02-01T10:39:35;6.60;99.90
1948;DHT22;974;52.400;9.818;2023-02-01T10:42:02;6.60;99.90
1948;DHT22;974;52.400;9.818;2023-02-01T10:44:29;6.70;99.90
1948;DHT22;974;52.400;9.818;2023-02-01T10:46:55;6.70;99.90
1948;DHT22;974;52.400;9.818;2023-02-01T10:49:33;6.60;99.90
1948;DHT22;974;52.400;9.818;2023-02-01T10:52:16;6.60;99.90
1948;DHT22;974;52.400;9.818;2023-02-01T10:54:42;6.60;99.90
1948;DHT22;974;52.400;9.818;2023-02-01T10:57:09;6.60;99.90
1948;DHT22;974;52.400;9.818;2023-02-01T10:59:35;6.50;99.90
1948;DHT22;974;52.400;9.818;2023-02-01T11:02:31;6.50;99.90
1948;DHT22;974;52.400;9.818;2023-02-01T11:05:03;6.60;99.90
1948;DHT22;974;52.400;9.818;2023-02-01T11:07:29;6.60;99.90
1948;DHT22;974;52.400;9.818;2023-02-01T11:09:55;6.60;99.90
1948;DHT22;974;52.400;9.818;2023-02-01T11:12:35;6.60;99.90
1948;DHT22;974;52.400;9.818;2023-02-01T11:15:21;6.50;99.90
1948;DHT22;974;52.400;9.818;2023-02-01T11:17:49;6.60;99.90
1948;DHT22;974;52.400;9.818;2023-02-01T11:20:38;6.60;99.90
1948;DHT22;974;52.400;9.818;2023-02-01T11:23:05;6.60;99.90
1948;DHT22;974;52.400;9.818;2023-02-01T11:25:32;6.60;99.90
1948;DHT22;974;52.400;9.818;2023-02-01T11:28:00;6.60;99.90
1948;DHT22;974;52.400;9.818;2023-02-01T11:30:34;6.70;99.90
1948;DHT22;974;52.400;9.818;2023-02-01T11:33:01;6.70;99.90
1948;DHT22;974;52.400;9.818;2023-02-01T11:35:28;6.60;99.90
1948;DHT22;974;52.400;9.818;2023-02-01T11:37:57;6.70;99.90
1948;DHT22;974;52.400;9.818;2023-02-01T11:40:34;6.80;99.90
1948;DHT22;974;52.400;9.818;2023-02-01T11:45:33;7.00;99.90
1948;DHT22;974;52.400;9.818;2023-02-01T11:48:00;7.10;99.90
1948;DHT22;974;52.400;9.818;2023-02-01T11:50:34;7.20;99.90
1948;DHT22;974;52.400;9.818;2023-02-01T11:53:25;7.30;99.90
1948;DHT22;974;52.400;9.818;2023-02-01T12:04:30;7.40;99.90
1948;DHT22;974;52.400;9.818;2023-02-01T12:15:27;7.40;99.90
1948;DHT22;974;52.400;9.818;2023-02-01T12:18:27;7.40;99.90
1948;DHT22;974;52.400;9.818;2023-02-01T12:21:14;7.30;99.90
1948;DHT22;974;52.400;9.818;2023-02-01T12:24:10;7.20;99.90
1948;DHT22;974;52.400;9.818;2023-02-01T12:26:53;7.00;99.90
1948;DHT22;974;52.400;9.818;2023-02-01T12:38:04;6.70;99.90
1948;DHT22;974;52.400;9.818;2023-02-01T12:45:57;6.50;99.90
1948;DHT22;974;52.400;9.818;2023-02-01T12:48:34;6.40;99.90
1948;DHT22;974;52.400;9.818;2023-02-01T12:51:04;6.20;99.90
1948;DHT22;974;52.400;9.818;2023-02-01T12:53:55;6.10;99.90
1948;DHT22;974;52.400;9.818;2023-02-01T12:56:38;6.20;99.90
1948;DHT22;974;52.400;9.818;2023-02-01T12:59:16;6.00;99.90
1948;DHT22;974;52.400;9.818;2023-02-01T13:01:48;6.10;99.90
1948;DHT22;974;52.400;9.818;2023-02-01T13:04:23;6.00;99.90
1948;DHT22;974;52.400;9.818;2023-02-01T13:06:55;6.00;99.90
1948;DHT22;974;52.400;9.818;2023-02-01T13:09:29;5.90;99.90
1948;DHT22;974;52.400;9.818;2023-02-01T13:12:00;5.90;99.90
1948;DHT22;974;52.400;9.818;2023-02-01T13:17:32;5.70;99.90
1948;DHT22;974;52.400;9.818;2023-02-01T13:20:30;5.60;99.90
1948;DHT22;974;52.400;9.818;2023-02-01T13:23:25;5.60;99.90
1948;DHT22;974;52.400;9.818;2023-02-01T13:25:52;5.30;99.90
1948;DHT22;974;52.400;9.818;2023-02-01T13:39:32;4.70;99.90
1948;DHT22;974;52.400;9.818;2023-02-01T13:42:03;4.40;99.90
1948;DHT22;974;52.400;9.818;2023-02-01T13:44:59;4.30;99.90
1948;DHT22;974;52.400;9.818;2023-02-01T13:47:29;4.00;99.90
1948;DHT22;974;52.400;9.818;2023-02-01T13:49:59;3.80;99.90
1948;DHT22;974;52.400;9.818;2023-02-01T13:52:42;3.70;99.90
1948;DHT22;974;52.400;9.818;2023-02-01T13:55:16;3.50;99.90
1948;DHT22;974;52.400;9.818;2023-02-01T13:57:50;3.40;99.90
1948;DHT22;974;52.400;9.818;2023-02-01T14:00:34;3.40;99.90
1948;DHT22;974;52.400;9.818;2023-02-01T14:10:55;3.30;99.90
1948;DHT22;974;52.400;9.818;2023-02-01T14:13:40;3.30;99.90
1948;DHT22;974;52.400;9.818;2023-02-01T14:29:33;3.00;99.90
1948;DHT22;974;52.400;9.818;2023-02-01T14:32:03;3.00;99.90
1948;DHT22;974;52.400;9.818;2023-02-01T14:37:07;3.00;99.90
1948;DHT22;974;52.400;9.818;2023-02-01T14:42:36;3.10;99.90
1948;DHT22;974;52.400;9.818;2023-02-01T14:47:54;3.20;99.90
1948;DHT22;974;52.400;9.818;2023-02-01T14:55:55;3.20;99.90
1948;DHT22;974;52.400;9.818;2023-02-01T15:01:28;3.20;99.90
1948;DHT22;974;52.400;9.818;2023-02-01T15:04:09;3.20;99.90
1948;DHT22;974;52.400;9.818;2023-02-01T15:06:51;3.10;99.90
1948;DHT22;974;52.400;9.818;2023-02-01T15:09:25;3.10;99.90
1948;DHT22;974;52.400;9.818;2023-02-01T15:14:20;3.10;99.90
1948;DHT22;974;52.400;9.818;2023-02-01T15:16:45;3.10;99.90
1948;DHT22;974;52.400;9.818;2023-02-01T15:19:19;3.10;99.90
1948;DHT22;974;52.400;9.818;2023-02-01T15:21:47;3.20;99.90
1948;DHT22;974;52.400;9.818;2023-02-01T15:24:18;3.30;99.90
1948;DHT22;974;52.400;9.818;2023-02-01T15:26:44;3.30;99.90
1948;DHT22;974;52.400;9.818;2023-02-01T15:29:12;3.40;99.90
1948;DHT22;974;52.400;9.818;2023-02-01T15:31:41;3.40;99.90
1948;DHT22;974;52.400;9.818;2023-02-01T15:34:08;3.30;99.90
1948;DHT22;974;52.400;9.818;2023-02-01T15:36:34;3.30;99.90
1948;DHT22;974;52.400;9.818;2023-02-01T15:39:19;3.20;99.90
1948;DHT22;974;52.400;9.818;2023-02-01T15:41:50;3.30;99.90
1948;DHT22;974;52.400;9.818;2023-02-01T15:44:20;3.30;99.90
1948;DHT22;974;52.400;9.818;2023-02-01T15:46:49;3.30;99.90
1948;DHT22;974;52.400;9.818;2023-02-01T15:49:30;3.30;99.90
1948;DHT22;974;52.400;9.818;2023-02-01T15:51:58;3.30;99.90
1948;DHT22;974;52.400;9.818;2023-02-01T15:54:37;3.40;99.90
1948;DHT22;974;52.400;9.818;2023-02-01T15:57:06;3.30;99.90
1948;DHT22;974;52.400;9.818;2023-02-01T15:59:40;3.30;99.90
1948;DHT22;974;52.400;9.818;2023-02-01T16:02:32;3.30;99.90
1948;DHT22;974;52.400;9.818;2023-02-01T16:04:58;3.30;99.90
1948;DHT22;974;52.400;9.818;2023-02-01T16:07:28;3.40;99.90
1948;DHT22;974;52.400;9.818;2023-02-01T16:09:59;3.40;99.90
1948;DHT22;974;52.400;9.818;2023-02-01T16:12:46;3.40;99.90
1948;DHT22;974;52.400;9.818;2023-02-01T16:15:11;3.40;99.90
1948;DHT22;974;52.400;9.818;2023-02-01T16:17:37;3.40;99.90
1948;DHT22;974;52.400;9.818;2023-02-01T16:20:03;3.40;99.90
1948;DHT22;974;52.400;9.818;2023-02-01T16:22:28;3.40;99.90
1948;DHT22;974;52.400;9.818;2023-02-01T16:24:54;3.40;99.90
1948;DHT22;974;52.400;9.818;2023-02-01T16:27:19;3.30;99.90
1948;DHT22;974;52.400;9.818;2023-02-01T16:29:46;3.30;99.90
1948;DHT22;974;52.400;9.818;2023-02-01T16:32:20;3.30;99.90
1948;DHT22;974;52.400;9.818;2023-02-01T16:34:46;3.40;99.90
1948;DHT22;974;52.400;9.818;2023-02-01T16:37:15;3.40;99.90
1948;DHT22;974;52.400;9.818;2023-02-01T16:39:41;3.40;99.90
1948;DHT22;974;52.400;9.818;2023-02-01T16:42:14;3.40;99.90
1948;DHT22;974;52.400;9.818;2023-02-01T16:44:40;3.40;99.90
1948;DHT22;974;52.400;9.818;2023-02-01T16:47:13;3.40;99.90
1948;DHT22;974;52.400;9.818;2023-02-01T16:49:41;3.50;99.90
1948;DHT22;974;52.400;9.818;2023-02-01T16:52:16;3.50;99.90
1948;DHT22;974;52.400;9.818;2023-02-01T16:54:42;3.50;99.90
1948;DHT22;974;52.400;9.818;2023-02-01T16:57:15;3.60;99.90
1948;DHT22;974;52.400;9.818;2023-02-01T16:59:41;3.60;99.90
1948;DHT22;974;52.400;9.818;2023-02-01T17:02:12;3.70;99.90
1948;DHT22;974;52.400;9.818;2023-02-01T17:04:39;3.80;99.90
1948;DHT22;974;52.400;9.818;2023-02-01T17:07:04;3.70;99.90
1948;DHT22;974;52.400;9.818;2023-02-01T17:09:35;3.80;99.90
1948;DHT22;974;52.400;9.818;2023-02-01T17:12:02;3.90;99.90
1948;DHT22;974;52.400;9.818;2023-02-01T17:14:30;3.90;99.90
1948;DHT22;974;52.400;9.818;2023-02-01T17:16:56;3.90;99.90
1948;DHT22;974;52.400;9.818;2023-02-01T17:19:22;4.00;99.90
1948;DHT22;974;52.400;9.818;2023-02-01T17:21:50;4.00;99.90
1948;DHT22;974;52.400;9.818;2023-02-01T17:24:23;4.10;99.90
1948;DHT22;974;52.400;9.818;2023-02-01T17:26:50;4.20;99.90
1948;DHT22;974;52.400;9.818;2023-02-01T17:29:17;4.20;99.90
1948;DHT22;974;52.400;9.818;2023-02-01T17:31:44;4.30;99.90
1948;DHT22;974;52.400;9.818;2023-02-01T17:34:11;4.30;99.90
1948;DHT22;974;52.400;9.818;2023-02-01T17:36:38;4.40;99.90
1948;DHT22;974;52.400;9.818;2023-02-01T17:39:08;4.40;99.90
1948;DHT22;974;52.400;9.818;2023-02-01T17:41:34;4.50;99.90
1948;DHT22;974;52.400;9.818;2023-02-01T17:44:00;4.50;99.90
1948;DHT22;974;52.400;9.818;2023-02-01T17:46:25;4.50;99.90
1948;DHT22;974;52.400;9.818;2023-02-01T17:48:53;4.60;99.90
1948;DHT22;974;52.400;9.818;2023-02-01T17:51:21;4.70;99.90
1948;DHT22;974;52.400;9.818;2023-02-01T17:53:47;4.60;99.90
1948;DHT22;974;52.400;9.818;2023-02-01T17:56:22;4.60;99.90
1948;DHT22;974;52.400;9.818;2023-02-01T17:58:48;4.70;99.90
1948;DHT22;974;52.400;9.818;2023-02-01T18:01:18;4.70;99.90
1948;DHT22;974;52.400;9.818;2023-02-01T18:03:44;4.70;99.90
1948;DHT22;974;52.400;9.818;2023-02-01T18:06:13;4.70;99.90
1948;DHT22;974;52.400;9.818;2023-02-01T18:08:39;4.70;99.90
1948;DHT22;974;52.400;9.818;2023-02-01T18:11:10;4.70;99.90
1948;DHT22;974;52.400;9.818;2023-02-01T18:13:36;4.70;99.90
1948;DHT22;974;52.400;9.818;2023-02-01T18:16:02;4.70;99.90
1948;DHT22;974;52.400;9.818;2023-02-01T18:18:29;4.70;99.90
1948;DHT22;974;52.400;9.818;2023-02-01T18:20:57;4.70;99.90
1948;DHT22;974;52.400;9.818;2023-02-01T18:23:23;4.60;99.90
1948;DHT22;974;52.400;9.818;2023-02-01T18:25:50;4.70;99.90
1948;DHT22;974;52.400;9.818;2023-02-01T18:28:17;4.60;99.90
1948;DHT22;974;52.400;9.818;2023-02-01T18:30:46;4.70;99.90
1948;DHT22;974;52.400;9.818;2023-02-01T18:33:15;4.50;99.90
1948;DHT22;974;52.400;9.818;2023-02-01T18:35:41;4.70;99.90
1948;DHT22;974;52.400;9.818;2023-02-01T18:38:07;4.70;99.90
1948;DHT22;974;52.400;9.818;2023-02-01T18:40:50;4.80;99.90
1948;DHT22;974;52.400;9.818;2023-02-01T18:43:16;4.80;99.90
1948;DHT22;974;52.400;9.818;2023-02-01T18:45:44;4.80;99.90
1948;DHT22;974;52.400;9.818;2023-02-01T18:48:11;4.70;99.90
1948;DHT22;974;52.400;9.818;2023-02-01T18:50:39;4.70;99.90
1948;DHT22;974;52.400;9.818;2023-02-01T18:53:11;4.70;99.90
1948;DHT22;974;52.400;9.818;2023-02-01T18:55:38;4.70;99.90
1948;DHT22;974;52.400;9.818;2023-02-01T18:58:04;4.60;99.90
1948;DHT22;974;52.400;9.818;2023-02-01T19:00:31;4.60;99.90
1948;DHT22;974;52.400;9.818;2023-02-01T19:02:57;4.50;99.90